Jenner, CA (95450)

4:44 PM PDT on August 03, 2015 (GMT -0700)
Sweetwater Springs | | Change Station
CLOSE
Current Station
Personal Weather Station
Location: Guerneville, CA
Elevation: 1385 ft
Nearby Weather Stations

Elev 1385 ft 38.54 °N, 122.96 °W | Updated 14 seconds ago

Partly Cloudy
Partly Cloudy
68.5 °F
Feels Like 68.5 °F
N
21.7
Wind Variable Wind from South
Gusts 24.8 mph

Today
High -- | Low -- °F
--% Chance of Precip.
Yesterday
High -- | Low -- °F
Precip. -- in
6:16 AM 8:21 PM
Waning Gibbous, 83% visible
Pressure 29.87 in
Visibility 10.0 miles
Clouds Few 15000 ft
Dew Point 57 °F
Humidity 67%
Rainfall 0.00 in
Snow Depth Not available.
UV 5.0 out of 12
Pollen 4.30 out of 12
Air Quality Not available.
Flu Activity Not available.
METAR KSTS 032253Z 22006KT 10SM FEW150 26/13 A2989 RMK AO2 SLP115 T02610128

More Conditions Fewer Conditions

Pressure 29.87 in
Visibility 10.0 miles
Clouds Few 15000 ft
Dew Point 57 °F
Humidity 67%
Rainfall 0.00 in
Snow Depth Not available.
UV 5.0 out of 12
Pollen 4.30 out of 12
Air Quality Not available.
Flu Activity Not available.
METAR KSTS 032253Z 22006KT 10SM FEW150 26/13 A2989 RMK AO2 SLP115 T02610128

More Conditions Fewer Conditions

10-Day Weather Forecast

×

Almanac

Astronomy

Aug. 03, 2015 Rise Set
Actual Time
Civil Twilight
Nautical Twilight
Astronomical Twilight
Moon
Length of Visible Light
Length of Day
Tomorrow will be .
, % of the Moon is Illuminated

Today's Extremes

State Highs State Lows

Community

WunderPhotos

Upload Photos

1,843,791 photos uploaded!

WunderBlogs® & News

Nearby

Air Quality

  Air Quality AQ Index Pollutant
Not available.

Snow Depth

Station Depth Elevation

Earthquake Activity

City Distance Mag. Time & Date
Minimum magnitude displayed is 2.5.

Coastal Water Temperatures

Place Temperature

Stations

Nearby Weather Stations

Station Location Temp. Windchill Dew Point Humidity Wind Precip. Elev Updated Type